sensor_id;sensor_type;location;lat;lon;timestamp;pressure;altitude;pressure_sealevel;temperature;humidity
13011;BME280;6786;57.632;11.962;2023-07-29T00:00:58;99924.81;;;20.46;66.16
13011;BME280;6786;57.632;11.962;2023-07-29T00:03:27;99924.81;;;20.46;66.01
13011;BME280;6786;57.632;11.962;2023-07-29T00:05:56;99928.84;;;20.42;66.24
13011;BME280;6786;57.632;11.962;2023-07-29T00:08:24;99870.66;;;20.01;66.10
13011;BME280;6786;57.632;11.962;2023-07-29T00:10:53;99935.88;;;20.43;66.16
13011;BME280;6786;57.632;11.962;2023-07-29T00:13:21;99926.16;;;20.42;66.20
13011;BME280;6786;57.632;11.962;2023-07-29T00:15:49;99925.47;;;20.40;66.40
13011;BME280;6786;57.632;11.962;2023-07-29T00:18:18;99921.81;;;20.41;66.06
13011;BME280;6786;57.632;11.962;2023-07-29T00:20:46;99928.84;;;20.42;66.07
13011;BME280;6786;57.632;11.962;2023-07-29T00:23:14;99929.53;;;20.44;66.22
13011;BME280;6786;57.632;11.962;2023-07-29T00:25:42;99919.78;;;20.43;66.21
13011;BME280;6786;57.632;11.962;2023-07-29T00:28:11;99907.00;;;20.29;66.08
13011;BME280;6786;57.632;11.962;2023-07-29T00:30:39;99900.47;;;20.32;66.12
13011;BME280;6786;57.632;11.962;2023-07-29T00:33:08;99845.13;;;19.97;66.20
13011;BME280;6786;57.632;11.962;2023-07-29T00:35:37;99921.47;;;20.44;66.24
13011;BME280;6786;57.632;11.962;2023-07-29T00:38:05;99919.78;;;20.43;66.08
13011;BME280;6786;57.632;11.962;2023-07-29T00:40:35;99909.69;;;20.37;66.00
13011;BME280;6786;57.632;11.962;2023-07-29T00:43:04;99928.50;;;20.45;65.99
13011;BME280;6786;57.632;11.962;2023-07-29T00:45:32;99911.56;;;20.45;65.86
13011;BME280;6786;57.632;11.962;2023-07-29T00:48:01;99915.78;;;20.47;66.17
13011;BME280;6786;57.632;11.962;2023-07-29T00:50:30;99917.78;;;20.45;66.15
13011;BME280;6786;57.632;11.962;2023-07-29T00:53:01;99911.22;;;20.48;65.86
13011;BME280;6786;57.632;11.962;2023-07-29T00:55:29;99913.75;;;20.49;65.79
13011;BME280;6786;57.632;11.962;2023-07-29T00:57:57;99914.06;;;20.46;65.84
13011;BME280;6786;57.632;11.962;2023-07-29T01:00:25;99908.72;;;20.46;65.82
13011;BME280;6786;57.632;11.962;2023-07-29T01:02:54;99917.44;;;20.48;65.80
13011;BME280;6786;57.632;11.962;2023-07-29T01:05:24;99912.94;;;20.49;65.81
13011;BME280;6786;57.632;11.962;2023-07-29T01:07:58;99902.19;;;20.49;65.77
13011;BME280;6786;57.632;11.962;2023-07-29T01:10:37;99903.34;;;20.46;66.02
13011;BME280;6786;57.632;11.962;2023-07-29T01:13:13;99897.97;;;20.46;65.96
13011;BME280;6786;57.632;11.962;2023-07-29T01:15:46;99892.59;;;20.46;65.88
13011;BME280;6786;57.632;11.962;2023-07-29T01:18:21;99887.25;;;20.46;66.04
13011;BME280;6786;57.632;11.962;2023-07-29T01:20:53;99882.88;;;20.45;66.06
13011;BME280;6786;57.632;11.962;2023-07-29T01:23:25;99883.91;;;20.44;66.10
13011;BME280;6786;57.632;11.962;2023-07-29T01:25:53;99799.38;;;19.91;65.99
13011;BME280;6786;57.632;11.962;2023-07-29T01:28:21;99887.25;;;20.46;65.86
13011;BME280;6786;57.632;11.962;2023-07-29T01:30:51;99887.25;;;20.46;65.81
13011;BME280;6786;57.632;11.962;2023-07-29T01:33:26;99894.31;;;20.47;66.14
13011;BME280;6786;57.632;11.962;2023-07-29T01:35:58;99893.44;;;20.47;65.97
13011;BME280;6786;57.632;11.962;2023-07-29T01:38:35;99881.88;;;20.46;65.91
13011;BME280;6786;57.632;11.962;2023-07-29T01:41:04;99898.63;;;20.40;65.71
13011;BME280;6786;57.632;11.962;2023-07-29T01:43:34;99874.84;;;20.45;65.99
13011;BME280;6786;57.632;11.962;2023-07-29T01:46:09;99876.50;;;20.46;65.99
13011;BME280;6786;57.632;11.962;2023-07-29T01:48:37;99881.06;;;20.46;65.97
13011;BME280;6786;57.632;11.962;2023-07-29T01:51:06;99876.50;;;20.46;65.96
13011;BME280;6786;57.632;11.962;2023-07-29T01:53:36;99874.84;;;20.45;66.00
13011;BME280;6786;57.632;11.962;2023-07-29T01:56:05;99871.97;;;20.47;65.94
13011;BME280;6786;57.632;11.962;2023-07-29T01:58:33;99863.94;;;20.47;65.89
13011;BME280;6786;57.632;11.962;2023-07-29T02:01:01;99858.72;;;20.45;65.94
13011;BME280;6786;57.632;11.962;2023-07-29T02:03:29;99855.03;;;20.46;65.83
13011;BME280;6786;57.632;11.962;2023-07-29T02:05:57;99859.56;;;20.46;65.66
13011;BME280;6786;57.632;11.962;2023-07-29T02:08:25;99860.41;;;20.46;65.99
13011;BME280;6786;57.632;11.962;2023-07-29T02:10:54;99859.56;;;20.46;65.88
13011;BME280;6786;57.632;11.962;2023-07-29T02:13:22;99851.69;;;20.44;66.03
13011;BME280;6786;57.632;11.962;2023-07-29T02:15:50;99844.47;;;20.45;65.80
13011;BME280;6786;57.632;11.962;2023-07-29T02:18:18;99850.00;;;20.43;65.72
13011;BME280;6786;57.632;11.962;2023-07-29T02:20:46;99837.41;;;20.36;65.95
13011;BME280;6786;57.632;11.962;2023-07-29T02:23:16;99849.66;;;20.46;65.96
13011;BME280;6786;57.632;11.962;2023-07-29T02:25:44;99846.00;;;20.47;65.84
13011;BME280;6786;57.632;11.962;2023-07-29T02:28:14;99844.28;;;20.46;65.83
13011;BME280;6786;57.632;11.962;2023-07-29T02:30:42;99842.28;;;20.48;65.63
13011;BME280;6786;57.632;11.962;2023-07-29T02:33:11;99843.31;;;20.47;65.82
13011;BME280;6786;57.632;11.962;2023-07-29T02:35:40;99846.81;;;20.48;65.73
13011;BME280;6786;57.632;11.962;2023-07-29T02:38:08;99846.00;;;20.47;65.79
13011;BME280;6786;57.632;11.962;2023-07-29T02:40:37;99843.31;;;20.47;65.70
13011;BME280;6786;57.632;11.962;2023-07-29T02:43:05;99838.94;;;20.46;65.76
13011;BME280;6786;57.632;11.962;2023-07-29T02:45:34;99843.31;;;20.47;65.64
13011;BME280;6786;57.632;11.962;2023-07-29T02:48:03;99825.50;;;20.38;65.71
13011;BME280;6786;57.632;11.962;2023-07-29T02:50:31;99839.59;;;20.48;65.52
13011;BME280;6786;57.632;11.962;2023-07-29T02:52:59;99839.44;;;20.50;65.69
13011;BME280;6786;57.632;11.962;2023-07-29T02:55:28;99833.56;;;20.46;65.72
13011;BME280;6786;57.632;11.962;2023-07-29T02:57:56;99832.41;;;20.49;65.55
13011;BME280;6786;57.632;11.962;2023-07-29T03:00:24;99838.59;;;20.49;65.79
13011;BME280;6786;57.632;11.962;2023-07-29T03:02:53;99833.22;;;20.49;65.47
13011;BME280;6786;57.632;11.962;2023-07-29T03:05:22;99831.56;;;20.48;65.68
13011;BME280;6786;57.632;11.962;2023-07-29T03:07:50;99836.94;;;20.48;65.45
13011;BME280;6786;57.632;11.962;2023-07-29T03:10:18;99836.94;;;20.48;65.77
13011;BME280;6786;57.632;11.962;2023-07-29T03:12:46;99836.94;;;20.48;65.59
13011;BME280;6786;57.632;11.962;2023-07-29T03:15:14;99836.94;;;20.48;65.87
13011;BME280;6786;57.632;11.962;2023-07-29T03:17:42;99842.28;;;20.48;65.78
13011;BME280;6786;57.632;11.962;2023-07-29T03:20:12;99841.44;;;20.48;65.84
13011;BME280;6786;57.632;11.962;2023-07-29T03:22:40;99836.94;;;20.48;65.70
13011;BME280;6786;57.632;11.962;2023-07-29T03:25:08;99836.94;;;20.48;65.84
13011;BME280;6786;57.632;11.962;2023-07-29T03:27:36;99831.56;;;20.48;65.59
13011;BME280;6786;57.632;11.962;2023-07-29T03:30:05;99818.97;;;20.41;65.58
13011;BME280;6786;57.632;11.962;2023-07-29T03:32:33;99742.25;;;19.98;65.52
13011;BME280;6786;57.632;11.962;2023-07-29T03:35:02;99761.34;;;20.03;65.81
13011;BME280;6786;57.632;11.962;2023-07-29T03:37:31;99795.31;;;20.36;65.67
13011;BME280;6786;57.632;11.962;2023-07-29T03:39:59;99827.03;;;20.49;65.71
13011;BME280;6786;57.632;11.962;2023-07-29T03:42:31;99827.84;;;20.49;65.52
13011;BME280;6786;57.632;11.962;2023-07-29T03:44:59;99824.34;;;20.49;65.53
13011;BME280;6786;57.632;11.962;2023-07-29T03:47:27;99817.13;;;20.49;65.63
13011;BME280;6786;57.632;11.962;2023-07-29T03:49:55;99815.44;;;20.48;65.61
13011;BME280;6786;57.632;11.962;2023-07-29T03:52:23;99815.44;;;20.48;65.75
13011;BME280;6786;57.632;11.962;2023-07-29T03:54:53;99841.44;;;20.48;65.62
13011;BME280;6786;57.632;11.962;2023-07-29T03:57:21;99816.31;;;20.49;65.47
13011;BME280;6786;57.632;11.962;2023-07-29T03:59:49;99813.94;;;20.46;65.73
13011;BME280;6786;57.632;11.962;2023-07-29T04:02:17;99820.81;;;20.48;65.75
13011;BME280;6786;57.632;11.962;2023-07-29T04:04:45;99817.13;;;20.49;65.73
13011;BME280;6786;57.632;11.962;2023-07-29T04:07:14;99740.72;;;20.04;65.46
13011;BME280;6786;57.632;11.962;2023-07-29T04:09:42;99811.75;;;20.49;65.87
13011;BME280;6786;57.632;11.962;2023-07-29T04:12:13;99801.69;;;20.43;65.77
13011;BME280;6786;57.632;11.962;2023-07-29T04:14:41;99741.22;;;20.07;65.46
13011;BME280;6786;57.632;11.962;2023-07-29T04:17:09;99810.09;;;20.48;65.57
13011;BME280;6786;57.632;11.962;2023-07-29T04:19:37;99722.78;;;19.96;65.55
13011;BME280;6786;57.632;11.962;2023-07-29T04:22:05;99806.38;;;20.49;65.63
13011;BME280;6786;57.632;11.962;2023-07-29T04:24:33;99804.72;;;20.48;65.76
13011;BME280;6786;57.632;11.962;2023-07-29T04:27:01;99810.09;;;20.48;65.56
13011;BME280;6786;57.632;11.962;2023-07-29T04:29:31;99795.66;;;20.49;65.59
13011;BME280;6786;57.632;11.962;2023-07-29T04:31:59;99802.03;;;20.48;65.47
13011;BME280;6786;57.632;11.962;2023-07-29T04:34:28;99802.72;;;20.50;65.61
13011;BME280;6786;57.632;11.962;2023-07-29T04:36:56;99721.09;;;20.03;65.64
13011;BME280;6786;57.632;11.962;2023-07-29T04:39:24;99808.09;;;20.50;65.74
13011;BME280;6786;57.632;11.962;2023-07-29T04:41:52;99800.03;;;20.50;65.53
13011;BME280;6786;57.632;11.962;2023-07-29T04:44:21;99806.38;;;20.49;65.67
13011;BME280;6786;57.632;11.962;2023-07-29T04:46:50;99807.22;;;20.50;65.63
13011;BME280;6786;57.632;11.962;2023-07-29T04:49:18;99808.09;;;20.50;65.53
13011;BME280;6786;57.632;11.962;2023-07-29T04:51:46;99808.09;;;20.50;65.75
13011;BME280;6786;57.632;11.962;2023-07-29T04:54:14;99806.38;;;20.49;65.53
13011;BME280;6786;57.632;11.962;2023-07-29T04:56:42;99806.38;;;20.49;65.47
13011;BME280;6786;57.632;11.962;2023-07-29T04:59:10;99802.72;;;20.50;65.77
13011;BME280;6786;57.632;11.962;2023-07-29T05:01:39;99801.88;;;20.50;65.55
13011;BME280;6786;57.632;11.962;2023-07-29T05:04:10;99808.91;;;20.51;65.69
13011;BME280;6786;57.632;11.962;2023-07-29T05:06:38;99802.72;;;20.50;65.68
13011;BME280;6786;57.632;11.962;2023-07-29T05:09:13;99804.38;;;20.51;65.43
13011;BME280;6786;57.632;11.962;2023-07-29T05:11:42;99799.00;;;20.51;65.73
13011;BME280;6786;57.632;11.962;2023-07-29T05:14:13;99802.72;;;20.50;65.47
13011;BME280;6786;57.632;11.962;2023-07-29T05:16:41;99798.16;;;20.51;65.57
13011;BME280;6786;57.632;11.962;2023-07-29T05:19:10;99799.00;;;20.51;65.72
13011;BME280;6786;57.632;11.962;2023-07-29T05:21:39;99799.00;;;20.51;65.68
13011;BME280;6786;57.632;11.962;2023-07-29T05:24:07;99799.00;;;20.51;65.74
13011;BME280;6786;57.632;11.962;2023-07-29T05:26:35;99804.38;;;20.51;65.75
13011;BME280;6786;57.632;11.962;2023-07-29T05:29:04;99799.00;;;20.51;65.49
13011;BME280;6786;57.632;11.962;2023-07-29T05:31:32;99800.69;;;20.52;65.43
13011;BME280;6786;57.632;11.962;2023-07-29T05:34:00;99795.31;;;20.52;65.56
13011;BME280;6786;57.632;11.962;2023-07-29T05:36:29;99795.31;;;20.52;65.63
13011;BME280;6786;57.632;11.962;2023-07-29T05:38:57;99708.72;;;20.02;65.66
13011;BME280;6786;57.632;11.962;2023-07-29T05:41:26;99789.94;;;20.52;65.44
13011;BME280;6786;57.632;11.962;2023-07-29T05:43:55;99788.28;;;20.51;65.60
13011;BME280;6786;57.632;11.962;2023-07-29T05:46:23;99797.00;;;20.53;65.70
13011;BME280;6786;57.632;11.962;2023-07-29T05:48:51;99786.44;;;20.52;65.67
13011;BME280;6786;57.632;11.962;2023-07-29T05:51:19;99795.31;;;20.52;65.73
13011;BME280;6786;57.632;11.962;2023-07-29T05:53:49;99787.28;;;20.44;65.77
13011;BME280;6786;57.632;11.962;2023-07-29T05:56:17;99788.94;;;20.45;65.49
13011;BME280;6786;57.632;11.962;2023-07-29T05:58:45;99786.59;;;20.50;65.80
13011;BME280;6786;57.632;11.962;2023-07-29T06:01:13;99793.66;;;20.51;65.99
13011;BME280;6786;57.632;11.962;2023-07-29T06:03:41;99790.28;;;20.49;65.81
13011;BME280;6786;57.632;11.962;2023-07-29T06:06:09;99791.28;;;20.48;65.87
13011;BME280;6786;57.632;11.962;2023-07-29T06:08:37;99786.59;;;20.50;65.61
13011;BME280;6786;57.632;11.962;2023-07-29T06:11:07;99784.91;;;20.49;65.76
13011;BME280;6786;57.632;11.962;2023-07-29T06:13:35;99781.25;;;20.50;65.85
13011;BME280;6786;57.632;11.962;2023-07-29T06:16:03;99779.53;;;20.49;65.73
13011;BME280;6786;57.632;11.962;2023-07-29T06:18:31;99776.84;;;20.49;65.77
13011;BME280;6786;57.632;11.962;2023-07-29T06:21:00;99775.88;;;20.50;65.90
13011;BME280;6786;57.632;11.962;2023-07-29T06:23:28;99779.53;;;20.49;65.79
13011;BME280;6786;57.632;11.962;2023-07-29T06:25:56;99774.16;;;20.49;65.78
13011;BME280;6786;57.632;11.962;2023-07-29T06:28:25;99775.88;;;20.50;65.64
13011;BME280;6786;57.632;11.962;2023-07-29T06:30:53;99775.03;;;20.50;65.81
13011;BME280;6786;57.632;11.962;2023-07-29T06:33:21;99759.59;;;20.44;65.84
13011;BME280;6786;57.632;11.962;2023-07-29T06:35:49;99770.50;;;20.50;65.67
13011;BME280;6786;57.632;11.962;2023-07-29T06:38:17;99770.50;;;20.50;65.92
13011;BME280;6786;57.632;11.962;2023-07-29T06:40:48;99771.31;;;20.51;65.90
13011;BME280;6786;57.632;11.962;2023-07-29T06:43:16;99707.38;;;20.06;65.85
13011;BME280;6786;57.632;11.962;2023-07-29T06:45:46;99773.84;;;20.52;65.67
13011;BME280;6786;57.632;11.962;2023-07-29T06:48:14;99776.69;;;20.51;65.67
13011;BME280;6786;57.632;11.962;2023-07-29T06:50:42;99770.50;;;20.50;65.81
13011;BME280;6786;57.632;11.962;2023-07-29T06:53:10;99770.50;;;20.50;65.77
13011;BME280;6786;57.632;11.962;2023-07-29T06:55:38;99766.97;;;20.50;65.75
13011;BME280;6786;57.632;11.962;2023-07-29T06:58:07;99773.34;;;20.49;66.13
13011;BME280;6786;57.632;11.962;2023-07-29T07:00:35;99775.88;;;20.50;66.08
13011;BME280;6786;57.632;11.962;2023-07-29T07:03:04;99768.81;;;20.49;65.81
13011;BME280;6786;57.632;11.962;2023-07-29T07:05:32;99768.81;;;20.49;66.12
13011;BME280;6786;57.632;11.962;2023-07-29T07:08:00;99763.44;;;20.49;65.79
13011;BME280;6786;57.632;11.962;2023-07-29T07:10:28;99770.50;;;20.50;66.06
13011;BME280;6786;57.632;11.962;2023-07-29T07:12:56;99687.94;;;20.04;65.70
13011;BME280;6786;57.632;11.962;2023-07-29T07:15:25;99764.28;;;20.50;65.82
13011;BME280;6786;57.632;11.962;2023-07-29T07:17:53;99765.13;;;20.50;65.88
13011;BME280;6786;57.632;11.962;2023-07-29T07:20:22;99768.00;;;20.49;66.16
13011;BME280;6786;57.632;11.962;2023-07-29T07:22:50;99765.94;;;20.51;65.82
13011;BME280;6786;57.632;11.962;2023-07-29T07:25:18;99772.16;;;20.51;66.08
13011;BME280;6786;57.632;11.962;2023-07-29T07:27:46;99764.13;;;20.51;65.84
13011;BME280;6786;57.632;11.962;2023-07-29T07:30:15;99760.41;;;20.52;65.99
13011;BME280;6786;57.632;11.962;2023-07-29T07:32:43;99773.84;;;20.52;65.82
13011;BME280;6786;57.632;11.962;2023-07-29T07:35:12;99778.38;;;20.52;65.79
13011;BME280;6786;57.632;11.962;2023-07-29T07:37:41;99704.38;;;20.01;65.78
13011;BME280;6786;57.632;11.962;2023-07-29T07:40:10;99768.47;;;20.52;66.06
13011;BME280;6786;57.632;11.962;2023-07-29T07:42:38;99757.72;;;20.52;65.80
13011;BME280;6786;57.632;11.962;2023-07-29T07:45:06;99753.56;;;20.50;66.16
13011;BME280;6786;57.632;11.962;2023-07-29T07:47:34;99759.75;;;20.50;66.09
13011;BME280;6786;57.632;11.962;2023-07-29T07:50:03;99754.06;;;20.53;66.10
13011;BME280;6786;57.632;11.962;2023-07-29T07:52:31;99759.44;;;20.53;66.06
13011;BME280;6786;57.632;11.962;2023-07-29T07:55:00;99755.72;;;20.54;65.82
13011;BME280;6786;57.632;11.962;2023-07-29T07:57:28;99748.69;;;20.53;65.92
13011;BME280;6786;57.632;11.962;2023-07-29T07:59:57;99754.06;;;20.53;66.07
13011;BME280;6786;57.632;11.962;2023-07-29T08:02:25;99747.84;;;20.53;65.93
13011;BME280;6786;57.632;11.962;2023-07-29T08:04:53;99748.69;;;20.53;66.05
13011;BME280;6786;57.632;11.962;2023-07-29T08:07:21;99666.47;;;20.04;66.07
13011;BME280;6786;57.632;11.962;2023-07-29T08:09:51;99748.69;;;20.53;65.91
13011;BME280;6786;57.632;11.962;2023-07-29T08:12:21;99737.28;;;20.51;65.86
13011;BME280;6786;57.632;11.962;2023-07-29T08:14:49;99739.63;;;20.54;66.20
13011;BME280;6786;57.632;11.962;2023-07-29T08:17:17;99734.25;;;20.54;66.05
13011;BME280;6786;57.632;11.962;2023-07-29T08:19:46;99741.28;;;20.55;66.07
13011;BME280;6786;57.632;11.962;2023-07-29T08:22:14;99734.59;;;20.51;66.18
13011;BME280;6786;57.632;11.962;2023-07-29T08:24:43;99734.25;;;20.54;65.94
13011;BME280;6786;57.632;11.962;2023-07-29T08:27:11;99728.88;;;20.54;66.25
13011;BME280;6786;57.632;11.962;2023-07-29T08:29:41;99726.72;;;20.50;65.95
13011;BME280;6786;57.632;11.962;2023-07-29T08:32:09;99734.25;;;20.54;66.23
13011;BME280;6786;57.632;11.962;2023-07-29T08:34:37;99728.88;;;20.54;66.25
13011;BME280;6786;57.632;11.962;2023-07-29T08:37:06;99674.84;;;20.09;65.76
13011;BME280;6786;57.632;11.962;2023-07-29T08:39:34;99730.56;;;20.55;65.88
13011;BME280;6786;57.632;11.962;2023-07-29T08:42:04;99735.91;;;20.55;66.32
13011;BME280;6786;57.632;11.962;2023-07-29T08:44:36;99736.94;;;20.54;66.19
13011;BME280;6786;57.632;11.962;2023-07-29T08:47:09;99741.28;;;20.55;66.15
13011;BME280;6786;57.632;11.962;2023-07-29T08:49:38;99718.31;;;20.45;66.14
13011;BME280;6786;57.632;11.962;2023-07-29T08:52:06;99739.63;;;20.54;66.39
13011;BME280;6786;57.632;11.962;2023-07-29T08:54:35;99677.25;;;20.20;66.18
13011;BME280;6786;57.632;11.962;2023-07-29T08:57:04;99734.25;;;20.54;66.06
13011;BME280;6786;57.632;11.962;2023-07-29T08:59:33;99745.00;;;20.54;66.16
13011;BME280;6786;57.632;11.962;2023-07-29T09:02:01;99739.63;;;20.54;66.21
13011;BME280;6786;57.632;11.962;2023-07-29T09:04:30;99737.97;;;20.53;66.26
13011;BME280;6786;57.632;11.962;2023-07-29T09:06:59;99740.63;;;20.53;66.31
13011;BME280;6786;57.632;11.962;2023-07-29T09:09:28;99734.59;;;20.51;66.27
13011;BME280;6786;57.632;11.962;2023-07-29T09:11:56;99742.31;;;20.54;66.47
13011;BME280;6786;57.632;11.962;2023-07-29T09:14:25;99739.97;;;20.51;66.25
13011;BME280;6786;57.632;11.962;2023-07-29T09:16:53;99745.00;;;20.54;66.15
13011;BME280;6786;57.632;11.962;2023-07-29T09:19:25;99715.13;;;20.33;66.23
13011;BME280;6786;57.632;11.962;2023-07-29T09:21:54;99739.63;;;20.54;66.27
13011;BME280;6786;57.632;11.962;2023-07-29T09:24:22;99737.97;;;20.53;66.38
13011;BME280;6786;57.632;11.962;2023-07-29T09:26:51;99735.91;;;20.55;66.24
13011;BME280;6786;57.632;11.962;2023-07-29T09:29:22;99740.44;;;20.55;66.46
13011;BME280;6786;57.632;11.962;2023-07-29T09:31:50;99733.41;;;20.54;66.49
13011;BME280;6786;57.632;11.962;2023-07-29T09:34:18;99732.38;;;20.55;66.54
13011;BME280;6786;57.632;11.962;2023-07-29T09:36:46;99740.44;;;20.55;66.45
13011;BME280;6786;57.632;11.962;2023-07-29T09:39:23;99726.38;;;20.53;66.62
13011;BME280;6786;57.632;11.962;2023-07-29T09:41:51;99728.88;;;20.54;66.68
13011;BME280;6786;57.632;11.962;2023-07-29T09:44:19;99620.03;;;19.80;66.20
13011;BME280;6786;57.632;11.962;2023-07-29T09:46:47;99730.56;;;20.55;66.62
13011;BME280;6786;57.632;11.962;2023-07-29T09:49:16;99732.22;;;20.56;66.54
13011;BME280;6786;57.632;11.962;2023-07-29T09:51:44;99732.59;;;20.53;66.53
13011;BME280;6786;57.632;11.962;2023-07-29T09:54:12;99725.19;;;20.55;66.67
13011;BME280;6786;57.632;11.962;2023-07-29T09:56:43;99732.22;;;20.56;66.51
13011;BME280;6786;57.632;11.962;2023-07-29T09:59:12;99727.69;;;20.57;66.75
13011;BME280;6786;57.632;11.962;2023-07-29T10:01:40;99724.16;;;20.56;66.42
13011;BME280;6786;57.632;11.962;2023-07-29T10:04:09;99728.56;;;20.57;66.82
13011;BME280;6786;57.632;11.962;2023-07-29T10:06:39;99641.66;;;20.02;66.64
13011;BME280;6786;57.632;11.962;2023-07-29T10:09:11;99721.47;;;20.56;66.58
13011;BME280;6786;57.632;11.962;2023-07-29T10:11:39;99734.25;;;20.54;66.59
13011;BME280;6786;57.632;11.962;2023-07-29T10:14:09;99614.19;;;19.92;66.66
13011;BME280;6786;57.632;11.962;2023-07-29T10:16:39;99621.53;;;19.90;66.76
13011;BME280;6786;57.632;11.962;2023-07-29T10:19:07;99731.41;;;20.56;66.82
13011;BME280;6786;57.632;11.962;2023-07-29T10:21:39;99726.84;;;20.56;66.79
13011;BME280;6786;57.632;11.962;2023-07-29T10:24:14;99655.06;;;20.10;66.71
13011;BME280;6786;57.632;11.962;2023-07-29T10:26:46;99726.84;;;20.56;66.60
13011;BME280;6786;57.632;11.962;2023-07-29T10:29:19;99649.72;;;20.02;66.78
13011;BME280;6786;57.632;11.962;2023-07-29T10:31:48;99718.97;;;20.55;66.95
13011;BME280;6786;57.632;11.962;2023-07-29T10:34:20;99720.84;;;20.54;66.75
13011;BME280;6786;57.632;11.962;2023-07-29T10:36:50;99716.47;;;20.53;67.04
13011;BME280;6786;57.632;11.962;2023-07-29T10:39:19;99723.84;;;20.51;66.78
13011;BME280;6786;57.632;11.962;2023-07-29T10:41:58;99725.19;;;20.55;67.24
13011;BME280;6786;57.632;11.962;2023-07-29T10:44:49;99734.25;;;20.54;67.36
13011;BME280;6786;57.632;11.962;2023-07-29T10:47:21;99726.19;;;20.54;66.94
13011;BME280;6786;57.632;11.962;2023-07-29T10:49:51;99704.56;;;20.40;67.08
13011;BME280;6786;57.632;11.962;2023-07-29T10:52:32;99730.56;;;20.55;67.25
13011;BME280;6786;57.632;11.962;2023-07-29T10:55:25;99735.91;;;20.55;67.17
13011;BME280;6786;57.632;11.962;2023-07-29T10:58:08;99723.53;;;20.54;67.30
13011;BME280;6786;57.632;11.962;2023-07-29T11:00:38;99730.88;;;20.52;67.06
13011;BME280;6786;57.632;11.962;2023-07-29T11:03:07;99732.59;;;20.53;66.91
13011;BME280;6786;57.632;11.962;2023-07-29T11:05:46;99738.94;;;20.52;67.14
13011;BME280;6786;57.632;11.962;2023-07-29T11:08:24;99734.25;;;20.54;67.22
13011;BME280;6786;57.632;11.962;2023-07-29T11:10:58;99741.28;;;20.55;67.10
13011;BME280;6786;57.632;11.962;2023-07-29T11:13:27;99737.59;;;20.56;67.07
13011;BME280;6786;57.632;11.962;2023-07-29T11:15:58;99636.97;;;19.96;67.14
13011;BME280;6786;57.632;11.962;2023-07-29T11:18:27;99748.31;;;20.56;67.18
13011;BME280;6786;57.632;11.962;2023-07-29T11:20:57;99742.97;;;20.56;67.00
13011;BME280;6786;57.632;11.962;2023-07-29T11:23:30;99746.66;;;20.55;67.07
13011;BME280;6786;57.632;11.962;2023-07-29T11:25:59;99739.63;;;20.54;67.36
13011;BME280;6786;57.632;11.962;2023-07-29T11:28:28;99734.25;;;20.54;67.36
13011;BME280;6786;57.632;11.962;2023-07-29T11:30:58;99734.25;;;20.54;67.41
13011;BME280;6786;57.632;11.962;2023-07-29T11:33:27;99742.31;;;20.54;67.38
13011;BME280;6786;57.632;11.962;2023-07-29T11:35:55;99735.91;;;20.55;67.46
13011;BME280;6786;57.632;11.962;2023-07-29T11:38:24;99724.53;;;20.53;67.31
13011;BME280;6786;57.632;11.962;2023-07-29T11:40:56;99730.56;;;20.55;67.46
13011;BME280;6786;57.632;11.962;2023-07-29T11:43:24;99720.16;;;20.52;67.31
13011;BME280;6786;57.632;11.962;2023-07-29T11:45:53;99661.44;;;20.01;67.44
13011;BME280;6786;57.632;11.962;2023-07-29T11:48:31;99735.91;;;20.55;67.66
13011;BME280;6786;57.632;11.962;2023-07-29T11:51:00;99735.91;;;20.55;67.63
13011;BME280;6786;57.632;11.962;2023-07-29T11:53:30;99666.13;;;20.07;67.41
13011;BME280;6786;57.632;11.962;2023-07-29T11:55:58;99667.19;;;20.14;67.57
13011;BME280;6786;57.632;11.962;2023-07-29T11:58:28;99719.81;;;20.55;67.55
13011;BME280;6786;57.632;11.962;2023-07-29T12:00:56;99723.19;;;20.57;67.69
13011;BME280;6786;57.632;11.962;2023-07-29T12:03:25;99723.19;;;20.57;67.31
13011;BME280;6786;57.632;11.962;2023-07-29T12:05:55;99731.25;;;20.57;67.46
13011;BME280;6786;57.632;11.962;2023-07-29T12:08:24;99728.56;;;20.57;67.33
13011;BME280;6786;57.632;11.962;2023-07-29T12:10:52;99723.19;;;20.57;67.35
13011;BME280;6786;57.632;11.962;2023-07-29T12:13:23;99716.13;;;20.56;67.42
13011;BME280;6786;57.632;11.962;2023-07-29T12:15:51;99710.75;;;20.56;67.54
13011;BME280;6786;57.632;11.962;2023-07-29T12:18:29;99704.38;;;20.57;67.52
13011;BME280;6786;57.632;11.962;2023-07-29T12:20:59;99707.06;;;20.57;67.57
13011;BME280;6786;57.632;11.962;2023-07-29T12:23:28;99716.81;;;20.50;67.57
13011;BME280;6786;57.632;11.962;2023-07-29T12:25:57;99570.09;;;19.79;67.22
13011;BME280;6786;57.632;11.962;2023-07-29T12:28:26;99701.72;;;20.57;67.73
13011;BME280;6786;57.632;11.962;2023-07-29T12:30:54;99563.06;;;19.70;67.53
13011;BME280;6786;57.632;11.962;2023-07-29T12:33:29;99701.72;;;20.57;67.66
13011;BME280;6786;57.632;11.962;2023-07-29T12:35:59;99700.00;;;20.56;67.41
13011;BME280;6786;57.632;11.962;2023-07-29T12:38:27;99705.38;;;20.56;67.60
13011;BME280;6786;57.632;11.962;2023-07-29T12:40:56;99697.31;;;20.56;67.68
13011;BME280;6786;57.632;11.962;2023-07-29T12:43:25;99696.34;;;20.57;67.41
13011;BME280;6786;57.632;11.962;2023-07-29T12:45:53;99696.69;;;20.54;67.36
13011;BME280;6786;57.632;11.962;2023-07-29T12:48:21;99701.72;;;20.57;67.45
13011;BME280;6786;57.632;11.962;2023-07-29T12:50:49;99693.66;;;20.57;67.47
13011;BME280;6786;57.632;11.962;2023-07-29T12:53:19;99690.97;;;20.57;67.50
13011;BME280;6786;57.632;11.962;2023-07-29T12:55:47;99666.00;;;20.49;67.50
13011;BME280;6786;57.632;11.962;2023-07-29T12:58:15;99685.94;;;20.54;67.79
13011;BME280;6786;57.632;11.962;2023-07-29T13:00:44;99689.28;;;20.56;67.70
13011;BME280;6786;57.632;11.962;2023-07-29T13:03:12;99678.53;;;20.56;67.50
13011;BME280;6786;57.632;11.962;2023-07-29T13:05:40;99675.84;;;20.56;67.86
13011;BME280;6786;57.632;11.962;2023-07-29T13:08:08;99684.28;;;20.53;67.73
13011;BME280;6786;57.632;11.962;2023-07-29T13:10:38;99673.16;;;20.56;67.71